sensor_id;sensor_type;location;lat;lon;timestamp;temperature;humidity
9977;DHT22;5029;47.378;11.776;2023-02-15T00:02:31;-2.20;99.90
9977;DHT22;5029;47.378;11.776;2023-02-15T00:07:34;-2.00;99.90
9977;DHT22;5029;47.378;11.776;2023-02-15T00:12:39;-1.90;99.90
9977;DHT22;5029;47.378;11.776;2023-02-15T00:17:42;-1.90;99.90
9977;DHT22;5029;47.378;11.776;2023-02-15T00:22:45;-2.10;99.90
9977;DHT22;5029;47.378;11.776;2023-02-15T00:27:50;-2.00;99.90
9977;DHT22;5029;47.378;11.776;2023-02-15T00:32:53;-2.00;99.90
9977;DHT22;5029;47.378;11.776;2023-02-15T00:37:57;-2.00;99.90
9977;DHT22;5029;47.378;11.776;2023-02-15T00:43:01;-2.20;99.90
9977;DHT22;5029;47.378;11.776;2023-02-15T00:48:05;-2.30;99.90
9977;DHT22;5029;47.378;11.776;2023-02-15T00:53:08;-2.40;99.90
9977;DHT22;5029;47.378;11.776;2023-02-15T00:58:13;-2.40;99.90
9977;DHT22;5029;47.378;11.776;2023-02-15T01:03:18;-2.50;99.90
9977;DHT22;5029;47.378;11.776;2023-02-15T01:08:21;-2.50;99.90
9977;DHT22;5029;47.378;11.776;2023-02-15T01:13:26;-2.50;99.90
9977;DHT22;5029;47.378;11.776;2023-02-15T01:18:29;-2.50;99.90
9977;DHT22;5029;47.378;11.776;2023-02-15T01:23:33;-2.60;99.90
9977;DHT22;5029;47.378;11.776;2023-02-15T01:28:37;-2.60;99.90
9977;DHT22;5029;47.378;11.776;2023-02-15T01:33:41;-2.50;99.90
9977;DHT22;5029;47.378;11.776;2023-02-15T01:38:45;-2.40;99.90
9977;DHT22;5029;47.378;11.776;2023-02-15T01:43:51;-2.40;99.90
9977;DHT22;5029;47.378;11.776;2023-02-15T01:49:00;-2.70;99.90
9977;DHT22;5029;47.378;11.776;2023-02-15T01:54:09;-2.60;99.90
9977;DHT22;5029;47.378;11.776;2023-02-15T01:59:18;-2.70;99.90
9977;DHT22;5029;47.378;11.776;2023-02-15T02:04:28;-2.60;99.90
9977;DHT22;5029;47.378;11.776;2023-02-15T02:09:35;-2.60;99.90
9977;DHT22;5029;47.378;11.776;2023-02-15T02:14:40;-2.50;99.90
9977;DHT22;5029;47.378;11.776;2023-02-15T02:20:16;-2.70;99.90
9977;DHT22;5029;47.378;11.776;2023-02-15T02:25:47;-2.70;99.90
9977;DHT22;5029;47.378;11.776;2023-02-15T02:31:31;-2.70;99.90
9977;DHT22;5029;47.378;11.776;2023-02-15T02:36:46;-2.60;99.90
9977;DHT22;5029;47.378;11.776;2023-02-15T02:41:58;-2.80;99.90
9977;DHT22;5029;47.378;11.776;2023-02-15T02:47:07;-2.80;99.90
9977;DHT22;5029;47.378;11.776;2023-02-15T02:52:36;-2.90;99.90
9977;DHT22;5029;47.378;11.776;2023-02-15T02:57:44;-3.00;99.90
9977;DHT22;5029;47.378;11.776;2023-02-15T03:02:52;-3.00;99.90
9977;DHT22;5029;47.378;11.776;2023-02-15T03:08:00;-2.90;99.90
9977;DHT22;5029;47.378;11.776;2023-02-15T03:13:08;-3.00;99.90
9977;DHT22;5029;47.378;11.776;2023-02-15T03:18:11;-3.00;99.90
9977;DHT22;5029;47.378;11.776;2023-02-15T03:23:19;-2.70;99.90
9977;DHT22;5029;47.378;11.776;2023-02-15T03:28:28;-2.70;99.90
9977;DHT22;5029;47.378;11.776;2023-02-15T03:33:36;-2.80;99.90
9977;DHT22;5029;47.378;11.776;2023-02-15T03:38:46;-3.00;99.90
9977;DHT22;5029;47.378;11.776;2023-02-15T03:43:54;-3.20;99.90
9977;DHT22;5029;47.378;11.776;2023-02-15T03:49:01;-3.10;99.90
9977;DHT22;5029;47.378;11.776;2023-02-15T03:54:09;-3.20;99.90
9977;DHT22;5029;47.378;11.776;2023-02-15T03:59:13;-3.10;99.90
9977;DHT22;5029;47.378;11.776;2023-02-15T04:04:36;-3.30;99.90
9977;DHT22;5029;47.378;11.776;2023-02-15T04:09:41;-3.20;99.90
9977;DHT22;5029;47.378;11.776;2023-02-15T04:15:02;-3.10;99.90
9977;DHT22;5029;47.378;11.776;2023-02-15T04:20:23;-3.10;99.90
9977;DHT22;5029;47.378;11.776;2023-02-15T04:25:45;-3.00;99.90
9977;DHT22;5029;47.378;11.776;2023-02-15T04:30:48;-3.20;99.90
9977;DHT22;5029;47.378;11.776;2023-02-15T04:35:51;-3.30;99.90
9977;DHT22;5029;47.378;11.776;2023-02-15T04:40:56;-3.30;99.90
9977;DHT22;5029;47.378;11.776;2023-02-15T04:45:59;-3.20;99.90
9977;DHT22;5029;47.378;11.776;2023-02-15T04:51:05;-3.20;99.90
9977;DHT22;5029;47.378;11.776;2023-02-15T04:56:10;-3.20;99.90
9977;DHT22;5029;47.378;11.776;2023-02-15T05:01:14;-3.30;99.90
9977;DHT22;5029;47.378;11.776;2023-02-15T05:06:17;-3.40;99.90
9977;DHT22;5029;47.378;11.776;2023-02-15T05:11:22;-3.50;99.90
9977;DHT22;5029;47.378;11.776;2023-02-15T05:16:25;-3.30;99.90
9977;DHT22;5029;47.378;11.776;2023-02-15T05:21:29;-3.20;99.90
9977;DHT22;5029;47.378;11.776;2023-02-15T05:26:34;-3.20;99.90
9977;DHT22;5029;47.378;11.776;2023-02-15T05:31:55;-3.20;99.90
9977;DHT22;5029;47.378;11.776;2023-02-15T05:36:58;-3.20;99.90
9977;DHT22;5029;47.378;11.776;2023-02-15T05:42:03;-3.30;99.90
9977;DHT22;5029;47.378;11.776;2023-02-15T05:47:07;-3.20;99.90
9977;DHT22;5029;47.378;11.776;2023-02-15T05:52:10;-3.40;99.90
9977;DHT22;5029;47.378;11.776;2023-02-15T05:57:15;-3.40;99.90
9977;DHT22;5029;47.378;11.776;2023-02-15T06:02:18;-3.50;99.90
9977;DHT22;5029;47.378;11.776;2023-02-15T06:07:22;-3.50;99.90
9977;DHT22;5029;47.378;11.776;2023-02-15T06:12:26;-3.40;99.90
9977;DHT22;5029;47.378;11.776;2023-02-15T06:17:30;-3.40;99.90
9977;DHT22;5029;47.378;11.776;2023-02-15T06:22:33;-3.40;99.90
9977;DHT22;5029;47.378;11.776;2023-02-15T06:27:40;-3.40;99.90
9977;DHT22;5029;47.378;11.776;2023-02-15T06:32:44;-3.50;99.90
9977;DHT22;5029;47.378;11.776;2023-02-15T06:37:48;-3.50;99.90
9977;DHT22;5029;47.378;11.776;2023-02-15T06:42:52;-3.50;99.90
9977;DHT22;5029;47.378;11.776;2023-02-15T06:47:56;-3.40;99.90
9977;DHT22;5029;47.378;11.776;2023-02-15T06:52:59;-3.30;99.90
9977;DHT22;5029;47.378;11.776;2023-02-15T06:58:04;-3.30;99.90
9977;DHT22;5029;47.378;11.776;2023-02-15T07:03:07;-3.40;99.90
9977;DHT22;5029;47.378;11.776;2023-02-15T07:08:10;-3.30;99.90
9977;DHT22;5029;47.378;11.776;2023-02-15T07:13:15;-3.20;99.90
9977;DHT22;5029;47.378;11.776;2023-02-15T07:18:18;-3.30;99.90
9977;DHT22;5029;47.378;11.776;2023-02-15T07:23:22;-3.30;99.90
9977;DHT22;5029;47.378;11.776;2023-02-15T07:28:28;-3.40;99.90
9977;DHT22;5029;47.378;11.776;2023-02-15T07:33:32;-3.30;99.90
9977;DHT22;5029;47.378;11.776;2023-02-15T07:38:36;-3.30;99.90
9977;DHT22;5029;47.378;11.776;2023-02-15T07:43:43;-3.20;99.90
9977;DHT22;5029;47.378;11.776;2023-02-15T07:48:47;-3.40;99.90
9977;DHT22;5029;47.378;11.776;2023-02-15T07:53:50;-3.10;99.90
9977;DHT22;5029;47.378;11.776;2023-02-15T07:58:55;-3.10;99.90
9977;DHT22;5029;47.378;11.776;2023-02-15T08:04:00;-3.00;99.90
9977;DHT22;5029;47.378;11.776;2023-02-15T08:09:04;-3.00;99.90
9977;DHT22;5029;47.378;11.776;2023-02-15T08:14:11;-3.00;99.90
9977;DHT22;5029;47.378;11.776;2023-02-15T08:19:17;-3.10;99.90
9977;DHT22;5029;47.378;11.776;2023-02-15T08:24:22;-3.10;99.90
9977;DHT22;5029;47.378;11.776;2023-02-15T08:29:27;-3.00;99.90
9977;DHT22;5029;47.378;11.776;2023-02-15T08:34:33;-2.90;99.90
9977;DHT22;5029;47.378;11.776;2023-02-15T08:39:37;-2.80;99.90
9977;DHT22;5029;47.378;11.776;2023-02-15T08:44:41;-2.70;99.90
9977;DHT22;5029;47.378;11.776;2023-02-15T08:49:45;-2.90;99.90
9977;DHT22;5029;47.378;11.776;2023-02-15T08:54:48;-2.90;99.90
9977;DHT22;5029;47.378;11.776;2023-02-15T08:59:53;-2.80;99.90
9977;DHT22;5029;47.378;11.776;2023-02-15T09:04:56;-2.80;99.90
9977;DHT22;5029;47.378;11.776;2023-02-15T09:10:00;-2.70;99.90
9977;DHT22;5029;47.378;11.776;2023-02-15T09:15:05;-2.50;99.90
9977;DHT22;5029;47.378;11.776;2023-02-15T09:20:09;-2.50;99.90
9977;DHT22;5029;47.378;11.776;2023-02-15T09:25:13;-2.30;99.90
9977;DHT22;5029;47.378;11.776;2023-02-15T09:30:18;-1.50;99.90
9977;DHT22;5029;47.378;11.776;2023-02-15T09:35:21;-0.80;99.90
9977;DHT22;5029;47.378;11.776;2023-02-15T09:40:25;-0.70;99.90
9977;DHT22;5029;47.378;11.776;2023-02-15T09:45:41;-0.90;99.90
9977;DHT22;5029;47.378;11.776;2023-02-15T09:50:57;-1.10;99.90
9977;DHT22;5029;47.378;11.776;2023-02-15T09:56:12;-1.10;99.90
9977;DHT22;5029;47.378;11.776;2023-02-15T10:01:26;-1.30;99.90
9977;DHT22;5029;47.378;11.776;2023-02-15T10:06:36;-0.90;99.90
9977;DHT22;5029;47.378;11.776;2023-02-15T10:12:00;-0.70;99.90
9977;DHT22;5029;47.378;11.776;2023-02-15T10:17:18;-0.20;99.90
9977;DHT22;5029;47.378;11.776;2023-02-15T10:22:29;0.10;99.90
9977;DHT22;5029;47.378;11.776;2023-02-15T10:27:39;0.90;99.90
9977;DHT22;5029;47.378;11.776;2023-02-15T10:32:57;1.00;99.90
9977;DHT22;5029;47.378;11.776;2023-02-15T10:38:19;1.40;99.90
9977;DHT22;5029;47.378;11.776;2023-02-15T10:43:39;2.10;99.90
9977;DHT22;5029;47.378;11.776;2023-02-15T10:54:21;2.70;99.90
9977;DHT22;5029;47.378;11.776;2023-02-15T10:59:49;2.50;99.90
9977;DHT22;5029;47.378;11.776;2023-02-15T11:05:14;2.40;99.90
9977;DHT22;5029;47.378;11.776;2023-02-15T11:10:28;2.80;99.90
9977;DHT22;5029;47.378;11.776;2023-02-15T11:15:35;3.20;99.90
9977;DHT22;5029;47.378;11.776;2023-02-15T11:20:46;3.00;99.90
9977;DHT22;5029;47.378;11.776;2023-02-15T11:25:56;3.20;99.90
9977;DHT22;5029;47.378;11.776;2023-02-15T11:31:02;3.30;99.90
9977;DHT22;5029;47.378;11.776;2023-02-15T11:36:17;3.50;99.90
9977;DHT22;5029;47.378;11.776;2023-02-15T11:41:27;4.40;99.90
9977;DHT22;5029;47.378;11.776;2023-02-15T11:46:31;4.30;99.90
9977;DHT22;5029;47.378;11.776;2023-02-15T11:51:36;4.50;99.90
9977;DHT22;5029;47.378;11.776;2023-02-15T11:56:39;5.00;99.90
9977;DHT22;5029;47.378;11.776;2023-02-15T12:01:44;5.30;99.90
9977;DHT22;5029;47.378;11.776;2023-02-15T12:06:52;5.50;99.90
9977;DHT22;5029;47.378;11.776;2023-02-15T12:12:23;5.00;99.90
9977;DHT22;5029;47.378;11.776;2023-02-15T12:17:29;5.00;99.90
9977;DHT22;5029;47.378;11.776;2023-02-15T12:22:37;5.30;99.90
9977;DHT22;5029;47.378;11.776;2023-02-15T12:27:43;5.40;99.90
9977;DHT22;5029;47.378;11.776;2023-02-15T12:32:49;5.10;99.90
9977;DHT22;5029;47.378;11.776;2023-02-15T12:37:59;5.10;99.90
9977;DHT22;5029;47.378;11.776;2023-02-15T12:43:04;5.20;99.90
9977;DHT22;5029;47.378;11.776;2023-02-15T12:48:15;5.30;99.90
9977;DHT22;5029;47.378;11.776;2023-02-15T12:53:23;5.90;99.90
9977;DHT22;5029;47.378;11.776;2023-02-15T12:58:33;6.00;99.90
9977;DHT22;5029;47.378;11.776;2023-02-15T13:03:38;6.30;1.00
9977;DHT22;5029;47.378;11.776;2023-02-15T13:08:48;6.10;1.00
9977;DHT22;5029;47.378;11.776;2023-02-15T13:13:54;6.30;1.00
9977;DHT22;5029;47.378;11.776;2023-02-15T13:19:02;6.20;1.00
9977;DHT22;5029;47.378;11.776;2023-02-15T13:24:17;6.40;1.00
9977;DHT22;5029;47.378;11.776;2023-02-15T13:29:23;6.80;1.00
9977;DHT22;5029;47.378;11.776;2023-02-15T13:34:31;6.90;1.00
9977;DHT22;5029;47.378;11.776;2023-02-15T13:39:41;7.50;1.00
9977;DHT22;5029;47.378;11.776;2023-02-15T13:45:07;7.80;1.00
9977;DHT22;5029;47.378;11.776;2023-02-15T13:50:29;7.80;1.00
9977;DHT22;5029;47.378;11.776;2023-02-15T13:55:40;7.70;1.00
9977;DHT22;5029;47.378;11.776;2023-02-15T14:00:51;7.80;1.00
9977;DHT22;5029;47.378;11.776;2023-02-15T14:06:14;7.90;1.00
9977;DHT22;5029;47.378;11.776;2023-02-15T14:11:31;8.00;1.00
9977;DHT22;5029;47.378;11.776;2023-02-15T14:16:41;7.90;1.00
9977;DHT22;5029;47.378;11.776;2023-02-15T14:22:13;8.10;1.00
9977;DHT22;5029;47.378;11.776;2023-02-15T14:27:25;7.90;1.00
9977;DHT22;5029;47.378;11.776;2023-02-15T14:32:35;8.30;1.00
9977;DHT22;5029;47.378;11.776;2023-02-15T14:37:42;8.60;99.90
9977;DHT22;5029;47.378;11.776;2023-02-15T14:42:53;8.50;99.90
9977;DHT22;5029;47.378;11.776;2023-02-15T14:48:05;8.60;99.90
9977;DHT22;5029;47.378;11.776;2023-02-15T14:53:35;8.00;99.90
9977;DHT22;5029;47.378;11.776;2023-02-15T14:58:55;8.10;99.90
9977;DHT22;5029;47.378;11.776;2023-02-15T15:04:05;8.00;99.90
9977;DHT22;5029;47.378;11.776;2023-02-15T15:09:12;8.10;99.90
9977;DHT22;5029;47.378;11.776;2023-02-15T15:14:47;7.50;99.90
9977;DHT22;5029;47.378;11.776;2023-02-15T15:20:00;7.30;99.90
9977;DHT22;5029;47.378;11.776;2023-02-15T15:25:09;7.20;99.90
9977;DHT22;5029;47.378;11.776;2023-02-15T15:36:37;7.00;99.90
9977;DHT22;5029;47.378;11.776;2023-02-15T15:41:51;6.80;99.90
9977;DHT22;5029;47.378;11.776;2023-02-15T15:47:14;6.70;99.90
9977;DHT22;5029;47.378;11.776;2023-02-15T15:52:25;6.30;99.90
9977;DHT22;5029;47.378;11.776;2023-02-15T15:57:31;6.70;99.90
9977;DHT22;5029;47.378;11.776;2023-02-15T16:02:50;6.90;99.90
9977;DHT22;5029;47.378;11.776;2023-02-15T16:07:55;6.10;99.90
9977;DHT22;5029;47.378;11.776;2023-02-15T16:13:00;5.50;99.90
9977;DHT22;5029;47.378;11.776;2023-02-15T16:18:04;5.00;99.90
9977;DHT22;5029;47.378;11.776;2023-02-15T16:23:35;5.30;99.90
9977;DHT22;5029;47.378;11.776;2023-02-15T16:28:48;5.20;99.90
9977;DHT22;5029;47.378;11.776;2023-02-15T16:33:54;4.70;99.90
9977;DHT22;5029;47.378;11.776;2023-02-15T16:39:16;4.90;99.90
9977;DHT22;5029;47.378;11.776;2023-02-15T16:44:21;5.40;99.90
9977;DHT22;5029;47.378;11.776;2023-02-15T16:49:27;5.30;99.90
9977;DHT22;5029;47.378;11.776;2023-02-15T16:54:34;4.60;99.90
9977;DHT22;5029;47.378;11.776;2023-02-15T16:59:40;4.40;99.90
9977;DHT22;5029;47.378;11.776;2023-02-15T17:05:12;4.00;99.90
9977;DHT22;5029;47.378;11.776;2023-02-15T17:10:32;3.70;1.00
9977;DHT22;5029;47.378;11.776;2023-02-15T17:15:40;3.50;1.00
9977;DHT22;5029;47.378;11.776;2023-02-15T17:20:47;4.10;99.90
9977;DHT22;5029;47.378;11.776;2023-02-15T17:25:54;4.10;99.90
9977;DHT22;5029;47.378;11.776;2023-02-15T17:30:59;3.90;1.00
9977;DHT22;5029;47.378;11.776;2023-02-15T17:36:25;3.90;1.00
9977;DHT22;5029;47.378;11.776;2023-02-15T17:41:39;4.00;99.90
9977;DHT22;5029;47.378;11.776;2023-02-15T17:46:44;3.90;99.90
9977;DHT22;5029;47.378;11.776;2023-02-15T17:51:50;3.70;1.00
9977;DHT22;5029;47.378;11.776;2023-02-15T17:56:58;3.90;1.00
9977;DHT22;5029;47.378;11.776;2023-02-15T18:02:10;3.80;1.00
9977;DHT22;5029;47.378;11.776;2023-02-15T18:07:32;3.70;1.00
9977;DHT22;5029;47.378;11.776;2023-02-15T18:12:55;3.50;1.00
9977;DHT22;5029;47.378;11.776;2023-02-15T18:18:01;2.90;1.00
9977;DHT22;5029;47.378;11.776;2023-02-15T18:23:12;2.40;1.00
9977;DHT22;5029;47.378;11.776;2023-02-15T18:28:18;2.60;1.00
9977;DHT22;5029;47.378;11.776;2023-02-15T18:33:32;2.50;1.00
9977;DHT22;5029;47.378;11.776;2023-02-15T18:38:38;2.30;1.00
9977;DHT22;5029;47.378;11.776;2023-02-15T18:43:46;2.00;1.00
9977;DHT22;5029;47.378;11.776;2023-02-15T18:48:57;1.70;1.00
9977;DHT22;5029;47.378;11.776;2023-02-15T18:54:07;1.70;1.00
9977;DHT22;5029;47.378;11.776;2023-02-15T18:59:19;1.70;1.00
9977;DHT22;5029;47.378;11.776;2023-02-15T19:04:25;1.90;1.00
9977;DHT22;5029;47.378;11.776;2023-02-15T19:09:30;1.60;1.00
9977;DHT22;5029;47.378;11.776;2023-02-15T19:14:37;1.60;1.00
9977;DHT22;5029;47.378;11.776;2023-02-15T19:19:44;1.50;99.90
9977;DHT22;5029;47.378;11.776;2023-02-15T19:24:50;1.40;1.00
9977;DHT22;5029;47.378;11.776;2023-02-15T19:30:00;1.30;82.70
9977;DHT22;5029;47.378;11.776;2023-02-15T19:35:07;1.20;99.90
9977;DHT22;5029;47.378;11.776;2023-02-15T19:40:20;1.20;99.90
9977;DHT22;5029;47.378;11.776;2023-02-15T19:45:33;1.10;99.90
9977;DHT22;5029;47.378;11.776;2023-02-15T19:50:40;1.00;99.90
9977;DHT22;5029;47.378;11.776;2023-02-15T19:55:49;1.00;99.90
9977;DHT22;5029;47.378;11.776;2023-02-15T20:00:59;0.80;99.90
9977;DHT22;5029;47.378;11.776;2023-02-15T20:06:08;0.50;99.90
9977;DHT22;5029;47.378;11.776;2023-02-15T20:11:16;0.60;99.90
9977;DHT22;5029;47.378;11.776;2023-02-15T20:16:22;0.60;99.90
9977;DHT22;5029;47.378;11.776;2023-02-15T20:21:30;0.40;99.90
9977;DHT22;5029;47.378;11.776;2023-02-15T20:26:36;0.50;99.90
9977;DHT22;5029;47.378;11.776;2023-02-15T20:31:44;0.50;99.90
9977;DHT22;5029;47.378;11.776;2023-02-15T20:36:57;0.40;99.90
9977;DHT22;5029;47.378;11.776;2023-02-15T20:42:02;0.30;99.90
9977;DHT22;5029;47.378;11.776;2023-02-15T20:47:09;0.30;99.90
9977;DHT22;5029;47.378;11.776;2023-02-15T20:52:17;0.30;99.90
9977;DHT22;5029;47.378;11.776;2023-02-15T20:57:22;0.20;99.90
9977;DHT22;5029;47.378;11.776;2023-02-15T21:02:32;0.00;99.90
9977;DHT22;5029;47.378;11.776;2023-02-15T21:07:38;-0.10;99.90
9977;DHT22;5029;47.378;11.776;2023-02-15T21:12:43;-0.20;99.90
9977;DHT22;5029;47.378;11.776;2023-02-15T21:17:50;-0.20;99.90
9977;DHT22;5029;47.378;11.776;2023-02-15T21:22:57;-0.30;99.90
9977;DHT22;5029;47.378;11.776;2023-02-15T21:28:16;-0.10;99.90
9977;DHT22;5029;47.378;11.776;2023-02-15T21:33:25;-0.10;99.90
9977;DHT22;5029;47.378;11.776;2023-02-15T21:38:30;-0.20;99.90
9977;DHT22;5029;47.378;11.776;2023-02-15T21:43:35;-0.20;99.90
9977;DHT22;5029;47.378;11.776;2023-02-15T21:48:58;-0.40;99.90
9977;DHT22;5029;47.378;11.776;2023-02-15T21:54:03;-0.40;99.90
9977;DHT22;5029;47.378;11.776;2023-02-15T21:59:09;-0.50;99.90
9977;DHT22;5029;47.378;11.776;2023-02-15T22:04:19;-0.60;99.90
9977;DHT22;5029;47.378;11.776;2023-02-15T22:09:29;-0.50;99.90
9977;DHT22;5029;47.378;11.776;2023-02-15T22:14:35;-0.60;99.90
9977;DHT22;5029;47.378;11.776;2023-02-15T22:19:40;-0.60;99.90
9977;DHT22;5029;47.378;11.776;2023-02-15T22:24:44;-0.60;99.90
9977;DHT22;5029;47.378;11.776;2023-02-15T22:29:48;-0.70;99.90
9977;DHT22;5029;47.378;11.776;2023-02-15T22:34:53;-0.70;99.90
9977;DHT22;5029;47.378;11.776;2023-02-15T22:39:56;-0.80;99.90
9977;DHT22;5029;47.378;11.776;2023-02-15T22:45:00;-0.80;99.90
9977;DHT22;5029;47.378;11.776;2023-02-15T22:50:14;-0.80;99.90
9977;DHT22;5029;47.378;11.776;2023-02-15T22:55:19;-1.10;99.90
9977;DHT22;5029;47.378;11.776;2023-02-15T23:00:25;-1.00;99.90
9977;DHT22;5029;47.378;11.776;2023-02-15T23:05:30;-1.10;99.90
9977;DHT22;5029;47.378;11.776;2023-02-15T23:10:33;-1.00;99.90
9977;DHT22;5029;47.378;11.776;2023-02-15T23:15:37;-1.00;99.90
9977;DHT22;5029;47.378;11.776;2023-02-15T23:20:43;-1.20;99.90
9977;DHT22;5029;47.378;11.776;2023-02-15T23:25:46;-1.20;99.90
9977;DHT22;5029;47.378;11.776;2023-02-15T23:30:50;-1.30;99.90
9977;DHT22;5029;47.378;11.776;2023-02-15T23:35:54;-1.30;99.90
9977;DHT22;5029;47.378;11.776;2023-02-15T23:40:59;-1.10;99.90
9977;DHT22;5029;47.378;11.776;2023-02-15T23:46:28;-1.20;99.90
9977;DHT22;5029;47.378;11.776;2023-02-15T23:51:33;-1.30;99.90
9977;DHT22;5029;47.378;11.776;2023-02-15T23:56:36;-1.40;99.90
